Time;durP1;ratioP1;P1;durP2;ratioP2;P2;SDS_P1;SDS_P2;PMS_P1;PMS_P2;Temp;Humidity;BMP_temperature;BMP_pressure;BME280_temperature;BME280_humidity;BME280_pressure;Samples;Min_cycle;Max_cycle;Signal;HPM_P1;HPM_P2
2022/10/24 00:00:10;;;;;;;6.88;2.13;;;;;;;;;;5030398;28;20110;-69
2022/10/24 00:02:55;;;;;;;11.10;1.77;;;;;;;;;;5028191;28;20040;-67
2022/10/24 00:05:45;;;;;;;13.38;3.13;;;;;;;;;;5019957;28;20033;-67
2022/10/24 00:08:30;;;;;;;9.25;1.90;;;;;;;;;;5016286;28;20051;-70
2022/10/24 00:11:18;;;;;;;6.53;1.50;;;;;;;;;;5020781;28;20038;-69
2022/10/24 00:14:03;;;;;;;14.93;1.92;;;;;;;;;;5022820;28;20036;-70
2022/10/24 00:16:48;;;;;;;12.02;1.85;;;;;;;;;;5017750;28;20376;-68
2022/10/24 00:19:33;;;;;;;8.15;2.03;;;;;;;;;;5019120;28;20037;-68
2022/10/24 00:22:19;;;;;;;12.68;1.80;;;;;;;;;;5028643;28;20510;-67
2022/10/24 00:25:05;;;;;;;18.65;2.03;;;;;;;;;;5022137;28;20463;-67
2022/10/24 00:27:50;;;;;;;7.25;1.85;;;;;;;;;;5020454;28;20479;-76
2022/10/24 00:30:35;;;;;;;12.55;1.88;;;;;;;;;;5030584;28;20041;-71
2022/10/24 00:33:21;;;;;;;7.15;1.77;;;;;;;;;;5034469;28;20048;-71
2022/10/24 00:36:09;;;;;;;5.80;1.40;;;;;;;;;;5031161;28;20031;-71
2022/10/24 00:38:54;;;;;;;4.63;2.13;;;;;;;;;;5021013;28;20091;-71
2022/10/24 00:41:41;;;;;;;4.72;1.40;;;;;;;;;;5024595;28;20040;-71
2022/10/24 00:44:28;;;;;;;7.60;2.08;;;;;;;;;;5028826;28;20464;-72
2022/10/24 00:47:16;;;;;;;10.43;2.17;;;;;;;;;;5031111;28;20037;-72
2022/10/24 00:50:09;;;;;;;10.75;2.17;;;;;;;;;;5025143;28;20036;-77
2022/10/24 00:52:55;;;;;;;8.02;2.38;;;;;;;;;;5027901;28;20035;-78
2022/10/24 00:55:41;;;;;;;7.43;1.65;;;;;;;;;;5023361;28;20033;-78
2022/10/24 00:58:27;;;;;;;6.13;1.70;;;;;;;;;;5013024;28;20037;-78
2022/10/24 01:01:13;;;;;;;8.98;2.58;;;;;;;;;;5014913;28;20038;-77
2022/10/24 01:03:58;;;;;;;7.43;1.75;;;;;;;;;;5011107;28;20494;-77
2022/10/24 01:06:44;;;;;;;9.93;2.88;;;;;;;;;;5026171;28;20060;-81
2022/10/24 01:09:32;;;;;;;6.97;1.70;;;;;;;;;;5026746;28;20104;-85
2022/10/24 01:12:17;;;;;;;7.70;1.75;;;;;;;;;;5034592;28;20055;-83
2022/10/24 01:15:07;;;;;;;10.20;1.75;;;;;;;;;;5017500;28;20052;-82
2022/10/24 01:17:55;;;;;;;9.98;1.85;;;;;;;;;;5024221;28;20047;-82
2022/10/24 01:20:44;;;;;;;7.25;1.67;;;;;;;;;;5017438;28;20380;-82
2022/10/24 01:23:41;;;;;;;8.35;1.98;;;;;;;;;;5020633;28;20048;-69
2022/10/24 01:26:32;;;;;;;12.70;2.47;;;;;;;;;;5023813;28;20033;-78
2022/10/24 01:29:30;;;;;;;10.30;1.88;;;;;;;;;;5020171;28;20037;-79
2022/10/24 01:32:20;;;;;;;10.05;1.90;;;;;;;;;;5044613;28;20145;-80
2022/10/24 01:35:10;;;;;;;10.75;1.60;;;;;;;;;;5016502;28;20039;-78
2022/10/24 01:38:06;;;;;;;6.95;2.08;;;;;;;;;;5035911;28;20182;-77
2022/10/24 01:40:54;;;;;;;10.10;1.77;;;;;;;;;;5017734;28;20040;-78
2022/10/24 01:43:53;;;;;;;7.70;2.08;;;;;;;;;;5023476;28;20040;-73
2022/10/24 01:46:41;;;;;;;12.15;3.15;;;;;;;;;;5033396;28;21111;-71
2022/10/24 01:49:29;;;;;;;11.45;1.95;;;;;;;;;;5008773;28;20095;-71
2022/10/24 01:52:15;;;;;;;5.47;2.08;;;;;;;;;;5025502;28;20041;-71
2022/10/24 01:55:00;;;;;;;10.20;2.53;;;;;;;;;;5029021;28;20097;-71
2022/10/24 01:57:46;;;;;;;7.65;1.55;;;;;;;;;;5033967;28;20384;-71
2022/10/24 02:00:31;;;;;;;11.30;3.05;;;;;;;;;;5026472;28;20033;-70
2022/10/24 02:03:29;;;;;;;6.63;1.85;;;;;;;;;;5030477;28;20036;-77
2022/10/24 02:06:24;;;;;;;11.73;2.67;;;;;;;;;;5026582;28;20033;-77
2022/10/24 02:09:15;;;;;;;5.72;1.90;;;;;;;;;;5005825;28;20064;-76
2022/10/24 02:12:00;;;;;;;17.05;3.10;;;;;;;;;;5017619;28;20037;-76
2022/10/24 02:14:50;;;;;;;9.75;2.10;;;;;;;;;;5026484;28;20047;-76
2022/10/24 02:17:35;;;;;;;13.48;2.80;;;;;;;;;;5026780;28;20094;-71
2022/10/24 02:20:26;;;;;;;9.88;1.92;;;;;;;;;;5021905;28;20064;-78
2022/10/24 02:23:23;;;;;;;11.20;1.92;;;;;;;;;;5023254;28;20044;-78
2022/10/24 02:26:12;;;;;;;9.40;2.20;;;;;;;;;;5025253;28;20112;-77
2022/10/24 02:28:58;;;;;;;6.80;2.15;;;;;;;;;;5025990;28;20044;-78
2022/10/24 02:31:49;;;;;;;9.30;2.10;;;;;;;;;;5021922;28;20068;-76
2022/10/24 02:34:34;;;;;;;12.10;2.55;;;;;;;;;;5022658;28;20068;-77
2022/10/24 02:37:22;;;;;;;12.20;2.80;;;;;;;;;;5024879;28;20060;-77
2022/10/24 02:40:08;;;;;;;10.88;2.42;;;;;;;;;;5024085;28;20079;-70
2022/10/24 02:42:54;;;;;;;5.32;1.55;;;;;;;;;;5021940;28;20033;-70
2022/10/24 02:45:40;;;;;;;9.82;2.13;;;;;;;;;;5027760;28;20033;-71
2022/10/24 02:48:37;;;;;;;9.63;2.50;;;;;;;;;;5026666;28;20041;-70
2022/10/24 02:51:24;;;;;;;11.73;2.03;;;;;;;;;;5032938;28;20495;-70
2022/10/24 02:54:10;;;;;;;10.00;2.38;;;;;;;;;;5033581;28;20041;-71
2022/10/24 02:56:58;;;;;;;14.85;2.55;;;;;;;;;;5031773;28;20040;-70
2022/10/24 02:59:43;;;;;;;7.35;1.80;;;;;;;;;;5019937;28;20507;-70
2022/10/24 03:02:28;;;;;;;5.90;1.73;;;;;;;;;;5030140;28;20040;-70
2022/10/24 03:05:14;;;;;;;11.93;2.78;;;;;;;;;;5027780;28;20033;-69
2022/10/24 03:07:59;;;;;;;11.73;2.05;;;;;;;;;;5033958;28;20025;-69
2022/10/24 03:10:44;;;;;;;8.23;1.70;;;;;;;;;;5019446;28;20048;-70
2022/10/24 03:13:29;;;;;;;9.65;2.63;;;;;;;;;;5015802;28;20041;-76
2022/10/24 03:16:14;;;;;;;17.27;2.38;;;;;;;;;;5028219;28;20082;-68
2022/10/24 03:19:00;;;;;;;10.30;2.50;;;;;;;;;;5010427;28;20029;-69
2022/10/24 03:21:45;;;;;;;12.18;2.80;;;;;;;;;;5029585;28;20037;-69
2022/10/24 03:24:30;;;;;;;9.02;2.05;;;;;;;;;;5026196;28;20446;-69
2022/10/24 03:27:15;;;;;;;11.18;2.65;;;;;;;;;;5026932;28;20036;-69
2022/10/24 03:30:01;;;;;;;12.45;2.55;;;;;;;;;;5018762;28;20045;-68
2022/10/24 03:32:46;;;;;;;9.68;2.22;;;;;;;;;;5014359;28;20044;-69
2022/10/24 03:35:31;;;;;;;7.60;2.20;;;;;;;;;;5021154;28;20036;-76
2022/10/24 03:38:16;;;;;;;11.13;2.42;;;;;;;;;;5021595;28;20049;-77
2022/10/24 03:41:01;;;;;;;8.27;2.72;;;;;;;;;;5018876;28;20487;-75
2022/10/24 03:43:47;;;;;;;14.60;3.22;;;;;;;;;;5024669;28;20055;-76
2022/10/24 03:46:32;;;;;;;11.18;2.28;;;;;;;;;;5015302;28;20033;-77
2022/10/24 03:49:17;;;;;;;12.35;3.22;;;;;;;;;;5027820;28;20040;-80
2022/10/24 03:52:02;;;;;;;11.95;1.95;;;;;;;;;;5041663;28;20037;-70
2022/10/24 03:54:47;;;;;;;10.65;2.33;;;;;;;;;;5030508;28;20021;-72
2022/10/24 03:57:33;;;;;;;15.00;3.00;;;;;;;;;;5021916;28;20136;-69
2022/10/24 04:00:18;;;;;;;15.80;2.67;;;;;;;;;;5025797;28;20067;-72
2022/10/24 04:03:04;;;;;;;13.93;3.90;;;;;;;;;;5025541;28;20376;-70
2022/10/24 04:05:49;;;;;;;9.88;2.95;;;;;;;;;;5033983;28;20108;-70
2022/10/24 04:08:35;;;;;;;15.75;2.97;;;;;;;;;;5028116;28;20030;-77
2022/10/24 04:11:20;;;;;;;10.35;2.40;;;;;;;;;;5030974;28;20098;-69
2022/10/24 04:14:05;;;;;;;13.85;3.05;;;;;;;;;;5022254;28;20662;-68
2022/10/24 04:16:50;;;;;;;9.18;2.35;;;;;;;;;;5024615;28;20371;-68
2022/10/24 04:19:35;;;;;;;13.57;3.10;;;;;;;;;;5031026;28;20082;-69
2022/10/24 04:22:21;;;;;;;9.05;2.40;;;;;;;;;;5020564;28;20130;-70
2022/10/24 04:25:06;;;;;;;11.88;2.83;;;;;;;;;;5026274;28;20033;-68
2022/10/24 04:27:52;;;;;;;11.30;2.45;;;;;;;;;;5023060;28;20032;-83
2022/10/24 04:30:37;;;;;;;15.95;3.20;;;;;;;;;;5023422;28;20447;-67
2022/10/24 04:33:22;;;;;;;15.02;3.05;;;;;;;;;;5022305;28;20159;-67
2022/10/24 04:36:07;;;;;;;12.60;2.33;;;;;;;;;;5019332;28;20040;-67
2022/10/24 04:38:53;;;;;;;14.02;2.95;;;;;;;;;;5027662;28;20029;-69
2022/10/24 04:41:38;;;;;;;20.65;3.08;;;;;;;;;;5025386;28;20044;-68
2022/10/24 04:44:23;;;;;;;17.17;4.30;;;;;;;;;;5023592;28;20032;-70
2022/10/24 04:47:08;;;;;;;14.15;2.95;;;;;;;;;;5029882;28;20269;-75
2022/10/24 04:49:54;;;;;;;12.93;3.00;;;;;;;;;;5033703;28;20053;-76
2022/10/24 04:52:39;;;;;;;14.63;3.15;;;;;;;;;;5020269;28;20033;-76
2022/10/24 04:55:24;;;;;;;10.23;2.92;;;;;;;;;;5020294;28;20407;-77
2022/10/24 04:58:09;;;;;;;13.95;3.10;;;;;;;;;;5012487;28;20086;-76
2022/10/24 05:00:54;;;;;;;14.40;3.55;;;;;;;;;;5030905;28;20178;-76
2022/10/24 05:03:40;;;;;;;9.75;3.17;;;;;;;;;;5018769;28;20033;-78
2022/10/24 05:06:25;;;;;;;9.98;2.90;;;;;;;;;;5032600;28;20550;-70
2022/10/24 05:09:10;;;;;;;15.75;3.03;;;;;;;;;;5021616;28;20037;-71
2022/10/24 05:11:56;;;;;;;9.27;3.65;;;;;;;;;;5027937;28;20044;-70
2022/10/24 05:14:41;;;;;;;13.90;3.35;;;;;;;;;;5017486;28;20036;-70
2022/10/24 05:17:26;;;;;;;15.45;3.90;;;;;;;;;;5029149;28;20572;-70
2022/10/24 05:20:12;;;;;;;11.38;3.10;;;;;;;;;;5028733;28;20576;-70
2022/10/24 05:22:57;;;;;;;14.70;3.30;;;;;;;;;;5029041;28;20029;-77
2022/10/24 05:25:42;;;;;;;13.48;3.55;;;;;;;;;;5022418;28;20061;-68
2022/10/24 05:28:28;;;;;;;13.02;2.72;;;;;;;;;;5025492;28;20117;-68
2022/10/24 05:31:13;;;;;;;16.60;4.30;;;;;;;;;;5025341;28;20043;-69
2022/10/24 05:33:58;;;;;;;17.27;3.67;;;;;;;;;;5019082;28;20042;-67
2022/10/24 05:36:43;;;;;;;14.57;3.42;;;;;;;;;;5025812;28;20033;-67
2022/10/24 05:39:28;;;;;;;7.85;2.42;;;;;;;;;;5018097;28;20033;-76
2022/10/24 05:42:14;;;;;;;10.75;2.90;;;;;;;;;;5019971;28;20175;-76
2022/10/24 05:44:59;;;;;;;12.55;3.30;;;;;;;;;;5018381;28;20076;-76
2022/10/24 05:47:44;;;;;;;8.30;2.85;;;;;;;;;;4997930;28;20471;-77
2022/10/24 05:50:30;;;;;;;11.40;3.40;;;;;;;;;;5025094;28;20111;-80
2022/10/24 05:53:15;;;;;;;10.80;3.50;;;;;;;;;;5023003;28;20036;-80
2022/10/24 05:56:00;;;;;;;11.00;3.88;;;;;;;;;;5027475;28;20040;-78
2022/10/24 05:58:45;;;;;;;18.05;3.85;;;;;;;;;;5018374;28;20465;-77
2022/10/24 06:01:31;;;;;;;7.72;2.53;;;;;;;;;;5030434;28;20118;-71
2022/10/24 06:04:16;;;;;;;8.98;2.97;;;;;;;;;;5032052;28;20025;-71
2022/10/24 06:07:01;;;;;;;11.43;3.05;;;;;;;;;;5029582;28;20104;-71
2022/10/24 06:09:47;;;;;;;13.93;2.95;;;;;;;;;;5021740;28;20124;-70
2022/10/24 06:12:32;;;;;;;11.55;2.50;;;;;;;;;;5030844;28;20049;-70
2022/10/24 06:15:17;;;;;;;9.30;2.33;;;;;;;;;;5020176;28;20480;-69
2022/10/24 06:18:02;;;;;;;6.95;2.00;;;;;;;;;;5021804;28;20044;-76
2022/10/24 06:20:48;;;;;;;8.88;3.25;;;;;;;;;;5025330;28;20035;-67
2022/10/24 06:23:33;;;;;;;10.43;2.33;;;;;;;;;;5025679;28;20034;-68
2022/10/24 06:26:19;;;;;;;15.13;3.75;;;;;;;;;;5017705;28;20041;-67
2022/10/24 06:29:04;;;;;;;7.18;2.88;;;;;;;;;;5034845;28;20041;-69
2022/10/24 06:31:49;;;;;;;14.38;3.97;;;;;;;;;;5021089;28;20033;-69
2022/10/24 06:34:34;;;;;;;9.60;3.20;;;;;;;;;;5027819;28;20037;-69
2022/10/24 06:37:19;;;;;;;19.63;4.72;;;;;;;;;;5023040;28;20041;-69
2022/10/24 06:40:05;;;;;;;7.63;2.67;;;;;;;;;;5020129;28;20052;-69
2022/10/24 06:42:50;;;;;;;11.90;3.00;;;;;;;;;;5025688;28;20079;-69
2022/10/24 06:45:37;;;;;;;10.32;2.72;;;;;;;;;;5020323;28;20025;-69
2022/10/24 06:48:22;;;;;;;14.60;3.33;;;;;;;;;;5039232;28;20094;-71
2022/10/24 06:51:07;;;;;;;8.82;2.65;;;;;;;;;;5022164;28;20041;-70
2022/10/24 06:53:53;;;;;;;15.60;3.92;;;;;;;;;;5022356;28;20115;-69
2022/10/24 06:56:38;;;;;;;9.68;3.13;;;;;;;;;;5024083;28;20093;-69
2022/10/24 06:59:23;;;;;;;11.95;4.00;;;;;;;;;;5022086;28;20029;-68
2022/10/24 07:02:12;;;;;;;15.07;3.22;;;;;;;;;;5025781;28;20104;-69
2022/10/24 07:04:57;;;;;;;8.32;2.78;;;;;;;;;;5023146;28;20030;-69
2022/10/24 07:07:43;;;;;;;9.13;2.60;;;;;;;;;;5024226;28;20043;-68
2022/10/24 07:10:28;;;;;;;6.90;2.50;;;;;;;;;;5023372;28;20498;-68
2022/10/24 07:13:13;;;;;;;8.02;2.72;;;;;;;;;;5022917;28;20036;-67
2022/10/24 07:15:58;;;;;;;10.65;3.22;;;;;;;;;;5021764;28;20685;-76
2022/10/24 07:18:44;;;;;;;11.35;2.88;;;;;;;;;;5022292;28;20028;-77
2022/10/24 07:21:30;;;;;;;10.50;2.95;;;;;;;;;;5021764;28;20021;-76
2022/10/24 07:24:15;;;;;;;9.77;2.42;;;;;;;;;;5022061;28;20443;-80
2022/10/24 07:27:01;;;;;;;12.00;3.30;;;;;;;;;;5016993;28;20053;-81
2022/10/24 07:29:46;;;;;;;6.05;2.53;;;;;;;;;;5017299;28;20032;-78
2022/10/24 07:32:31;;;;;;;10.32;3.88;;;;;;;;;;5022486;28;20035;-79
2022/10/24 07:35:17;;;;;;;11.05;3.58;;;;;;;;;;5020397;28;20029;-68
2022/10/24 07:38:02;;;;;;;11.50;3.00;;;;;;;;;;5024631;28;20021;-68
2022/10/24 07:40:47;;;;;;;9.10;3.45;;;;;;;;;;5018985;28;20076;-69
2022/10/24 07:43:32;;;;;;;6.95;3.15;;;;;;;;;;5024678;28;20674;-69
2022/10/24 07:46:18;;;;;;;19.58;3.92;;;;;;;;;;5022988;28;20029;-68
2022/10/24 07:49:04;;;;;;;10.88;3.25;;;;;;;;;;5004098;28;20052;-77
2022/10/24 07:51:49;;;;;;;12.98;4.43;;;;;;;;;;5024875;28;20033;-80
2022/10/24 07:54:34;;;;;;;10.13;2.72;;;;;;;;;;5022721;28;20037;-79
2022/10/24 07:57:20;;;;;;;10.73;3.00;;;;;;;;;;5024022;28;20056;-77
2022/10/24 08:00:05;;;;;;;13.52;4.00;;;;;;;;;;5023351;28;20451;-78
2022/10/24 08:02:50;;;;;;;10.35;2.53;;;;;;;;;;5039746;28;20179;-79
2022/10/24 08:05:37;;;;;;;12.50;2.75;;;;;;;;;;5020932;28;20038;-76
2022/10/24 08:08:23;;;;;;;7.88;3.00;;;;;;;;;;5018438;28;20029;-78
2022/10/24 08:11:09;;;;;;;9.20;3.33;;;;;;;;;;5025000;28;20607;-77
2022/10/24 08:13:56;;;;;;;6.68;2.63;;;;;;;;;;5020681;28;20026;-78
2022/10/24 08:16:41;;;;;;;7.40;2.90;;;;;;;;;;5023238;28;20445;-80
2022/10/24 08:19:26;;;;;;;10.13;3.25;;;;;;;;;;5021070;28;20029;-78
2022/10/24 08:22:11;;;;;;;6.20;2.72;;;;;;;;;;5016199;28;20475;-81
2022/10/24 08:24:57;;;;;;;10.85;3.72;;;;;;;;;;5021274;28;20511;-80
2022/10/24 08:27:42;;;;;;;14.50;4.43;;;;;;;;;;5022782;28;20057;-81
2022/10/24 08:30:27;;;;;;;5.32;2.65;;;;;;;;;;5023141;28;20116;-81
2022/10/24 08:33:12;;;;;;;8.70;2.10;;;;;;;;;;5023527;28;20156;-79
2022/10/24 08:35:59;;;;;;;9.90;2.60;;;;;;;;;;5022290;28;20480;-81
2022/10/24 08:38:44;;;;;;;9.35;3.38;;;;;;;;;;5020987;28;20029;-84
2022/10/24 08:41:37;;;;;;;9.43;2.60;;;;;;;;;;5019623;28;20029;-81
2022/10/24 08:44:27;;;;;;;5.78;2.80;;;;;;;;;;5016706;28;20037;-79
2022/10/24 08:47:17;;;;;;;7.70;2.42;;;;;;;;;;5019000;28;20071;-71
2022/10/24 08:50:05;;;;;;;9.55;2.90;;;;;;;;;;5022849;28;20025;-69
2022/10/24 08:53:03;;;;;;;8.52;2.78;;;;;;;;;;5018217;28;20045;-69
2022/10/24 08:55:50;;;;;;;9.23;2.20;;;;;;;;;;5018886;28;20037;-69
2022/10/24 08:58:42;;;;;;;6.03;2.25;;;;;;;;;;5023669;28;20029;-70
2022/10/24 09:01:30;;;;;;;5.93;2.22;;;;;;;;;;5011762;28;20017;-70
2022/10/24 09:04:17;;;;;;;6.25;2.42;;;;;;;;;;5021001;28;20058;-76
2022/10/24 09:07:03;;;;;;;6.28;2.42;;;;;;;;;;5008870;28;20041;-67
2022/10/24 09:09:49;;;;;;;9.68;2.97;;;;;;;;;;5017688;28;20594;-67
2022/10/24 09:12:35;;;;;;;9.02;3.15;;;;;;;;;;5021229;28;20033;-69
2022/10/24 09:15:27;;;;;;;8.25;2.65;;;;;;;;;;5017458;28;20029;-67
2022/10/24 09:18:17;;;;;;;12.20;2.75;;;;;;;;;;5020104;28;20639;-68
2022/10/24 09:21:04;;;;;;;8.25;2.40;;;;;;;;;;5018553;28;20104;-70
2022/10/24 09:23:49;;;;;;;8.15;2.38;;;;;;;;;;5015852;28;20108;-78
2022/10/24 09:26:36;;;;;;;8.30;2.55;;;;;;;;;;5021339;28;20029;-80
2022/10/24 09:29:22;;;;;;;6.90;2.00;;;;;;;;;;5020964;28;20040;-78
2022/10/24 09:32:19;;;;;;;7.72;2.30;;;;;;;;;;5019022;28;20610;-80
2022/10/24 09:35:10;;;;;;;6.13;2.35;;;;;;;;;;5021012;28;20352;-77
2022/10/24 09:37:57;;;;;;;9.05;2.67;;;;;;;;;;5017391;28;20037;-81
2022/10/24 09:40:48;;;;;;;10.98;2.83;;;;;;;;;;5020206;28;20128;-75
2022/10/24 09:43:38;;;;;;;9.73;2.30;;;;;;;;;;5023671;28;20076;-69
2022/10/24 09:46:25;;;;;;;11.07;3.13;;;;;;;;;;5007631;28;20037;-69
2022/10/24 09:49:25;;;;;;;8.45;2.53;;;;;;;;;;5022175;28;20470;-68
2022/10/24 09:52:10;;;;;;;;;;;;;;;;;;5023725;28;20044;-68
2022/10/24 09:55:15;;;;;;;8.23;2.40;;;;;;;;;;5024120;28;20406;-70
2022/10/24 09:58:04;;;;;;;8.73;2.40;;;;;;;;;;5010983;28;20079;-79
2022/10/24 10:00:56;;;;;;;6.20;2.70;;;;;;;;;;5025773;28;20045;-70
2022/10/24 10:03:42;;;;;;;10.68;2.70;;;;;;;;;;5018348;28;20079;-69
2022/10/24 10:06:27;;;;;;;10.73;3.30;;;;;;;;;;5027397;28;20166;-69
2022/10/24 10:09:15;;;;;;;9.40;3.13;;;;;;;;;;5023131;28;20033;-67
2022/10/24 10:12:00;;;;;;;6.50;2.28;;;;;;;;;;5008134;28;20035;-70
2022/10/24 10:14:45;;;;;;;5.68;2.30;;;;;;;;;;5021220;28;20033;-68
2022/10/24 10:17:31;;;;;;;9.27;3.28;;;;;;;;;;5022841;28;20372;-84
2022/10/24 10:20:29;;;;;;;8.88;3.28;;;;;;;;;;5045980;22;20190;-78
2022/10/24 10:23:30;;;;;;;3.88;1.95;;;;;;;;;;4998420;28;20084;-76
2022/10/24 10:26:23;;;;;;;8.40;2.35;;;;;;;;;;5000527;28;20121;-75
2022/10/24 10:29:29;;;;;;;7.45;2.90;;;;;;;;;;5021872;28;20305;-76
2022/10/24 10:32:33;;;;;;;10.50;2.78;;;;;;;;;;5024538;28;20582;-77
2022/10/24 10:35:23;;;;;;;7.25;2.70;;;;;;;;;;5030889;28;20149;-81
2022/10/24 10:38:08;;;;;;;6.40;2.97;;;;;;;;;;5033226;28;20032;-80
2022/10/24 10:41:12;;;;;;;9.80;3.10;;;;;;;;;;5021740;28;20029;-66
2022/10/24 10:44:11;;;;;;;10.82;3.45;;;;;;;;;;5031774;28;20148;-67
2022/10/24 10:46:59;;;;;;;18.13;6.28;;;;;;;;;;5030564;28;20055;-68
2022/10/24 10:49:45;;;;;;;13.82;3.63;;;;;;;;;;5044690;28;20037;-67
2022/10/24 10:52:35;;;;;;;9.45;2.42;;;;;;;;;;5027068;28;20394;-66
2022/10/24 10:55:29;;;;;;;8.25;2.88;;;;;;;;;;5033580;28;20032;-66
2022/10/24 10:58:15;;;;;;;6.97;2.38;;;;;;;;;;5029717;28;20036;-66
2022/10/24 11:01:15;;;;;;;7.10;2.53;;;;;;;;;;5021700;28;20029;-63
2022/10/24 11:04:12;;;;;;;9.18;2.17;;;;;;;;;;5028070;28;20041;-67
2022/10/24 11:07:04;;;;;;;6.95;2.35;;;;;;;;;;5015590;28;20086;-65
2022/10/24 11:09:52;;;;;;;4.78;2.13;;;;;;;;;;5030530;28;20037;-69
2022/10/24 11:12:39;;;;;;;8.55;1.85;;;;;;;;;;5032239;28;20039;-60
2022/10/24 11:15:36;;;;;;;6.75;1.80;;;;;;;;;;5032498;28;20297;-60
2022/10/24 11:18:35;;;;;;;5.97;2.22;;;;;;;;;;5024631;28;20029;-61
2022/10/24 11:21:22;;;;;;;5.97;2.13;;;;;;;;;;5009796;28;20034;-62
2022/10/24 11:24:14;;;;;;;4.35;1.60;;;;;;;;;;5013759;28;20472;-75
2022/10/24 11:26:59;;;;;;;6.18;1.90;;;;;;;;;;5011836;28;20029;-75
2022/10/24 11:29:53;;;;;;;7.10;1.58;;;;;;;;;;5014638;28;20026;-80
2022/10/24 11:32:41;;;;;;;4.00;1.30;;;;;;;;;;4997660;28;20033;-78
2022/10/24 11:35:36;;;;;;;4.63;1.25;;;;;;;;;;4999215;28;20033;-82
2022/10/24 11:38:36;;;;;;;5.97;1.70;;;;;;;;;;5007781;28;20056;-80
2022/10/24 11:41:33;;;;;;;5.25;1.77;;;;;;;;;;4997073;28;20106;-78
2022/10/24 11:44:54;;;;;;;3.22;1.70;;;;;;;;;;4997913;28;20120;-83
2022/10/24 11:48:19;;;;;;;4.40;1.40;;;;;;;;;;4875702;29;20071;-83
2022/10/24 11:51:18;;;;;;;2.35;1.20;;;;;;;;;;4873336;29;20052;-77
2022/10/24 11:54:08;;;;;;;6.70;2.33;;;;;;;;;;4885306;29;20029;-84
2022/10/24 11:57:14;;;;;;;3.67;1.50;;;;;;;;;;4862292;29;20028;-74
2022/10/24 12:00:00;;;;;;;4.75;1.70;;;;;;;;;;4882788;29;20028;-78
2022/10/24 12:03:04;;;;;;;6.22;1.75;;;;;;;;;;4881876;29;20052;-78
2022/10/24 12:06:18;;;;;;;4.95;2.03;;;;;;;;;;4858674;29;20060;-73
2022/10/24 12:09:15;;;;;;;3.80;1.45;;;;;;;;;;4863653;29;20318;-74
2022/10/24 12:12:19;;;;;;;5.32;1.70;;;;;;;;;;4881148;29;20036;-73
2022/10/24 12:15:04;;;;;;;2.17;1.05;;;;;;;;;;4869053;29;20876;-72
2022/10/24 12:17:57;;;;;;;5.40;1.75;;;;;;;;;;4873744;29;20039;-73
2022/10/24 12:20:43;;;;;;;3.67;1.05;;;;;;;;;;4890192;28;20035;-73
2022/10/24 12:23:30;;;;;;;4.18;1.35;;;;;;;;;;4949123;28;20070;-73
2022/10/24 12:26:19;;;;;;;4.43;1.25;;;;;;;;;;4938174;28;20043;-74
2022/10/24 12:29:32;;;;;;;7.43;1.30;;;;;;;;;;4995265;28;20111;-77
2022/10/24 12:32:52;;;;;;;3.25;1.10;;;;;;;;;;4979585;28;20033;-82
2022/10/24 12:35:43;;;;;;;1.90;1.30;;;;;;;;;;4991912;28;20041;-82
2022/10/24 12:38:28;;;;;;;3.00;1.10;;;;;;;;;;4996900;28;20049;-78
2022/10/24 12:41:39;;;;;;;2.35;1.20;;;;;;;;;;5010713;28;20040;-81
2022/10/24 12:44:29;;;;;;;2.58;1.25;;;;;;;;;;4995250;28;20029;-75
2022/10/24 12:47:25;;;;;;;4.75;1.10;;;;;;;;;;4995610;28;20034;-82
2022/10/24 12:50:20;;;;;;;3.40;1.10;;;;;;;;;;5023643;28;20377;-84
2022/10/24 12:53:29;;;;;;;3.47;1.45;;;;;;;;;;5012251;28;20041;-84
2022/10/24 12:56:16;;;;;;;4.85;1.17;;;;;;;;;;5008826;28;20582;-81
2022/10/24 12:59:01;;;;;;;2.10;0.90;;;;;;;;;;5008010;28;20033;-83
2022/10/24 13:01:47;;;;;;;2.53;1.27;;;;;;;;;;4993802;28;20109;-79
2022/10/24 13:04:42;;;;;;;3.97;1.35;;;;;;;;;;5008675;28;20090;-75
2022/10/24 13:07:46;;;;;;;3.10;1.45;;;;;;;;;;4997480;28;20106;-78
2022/10/24 13:10:43;;;;;;;3.60;1.45;;;;;;;;;;5004221;28;20025;-76
2022/10/24 13:13:33;;;;;;;4.85;1.48;;;;;;;;;;4997640;28;20491;-76
2022/10/24 13:16:18;;;;;;;;;;;;;;;;;;4997056;28;20465;-78
2022/10/24 13:19:06;;;;;;;2.47;1.20;;;;;;;;;;4996540;28;20005;-75
2022/10/24 13:21:56;;;;;;;3.45;1.50;;;;;;;;;;5012968;28;20026;-70
2022/10/24 13:24:41;;;;;;;4.07;0.95;;;;;;;;;;4999485;28;20029;-75
2022/10/24 13:27:28;;;;;;;4.68;2.25;;;;;;;;;;5012569;28;20040;-77
2022/10/24 13:30:23;;;;;;;4.13;1.73;;;;;;;;;;5013120;28;20039;-77
2022/10/24 13:33:27;;;;;;;2.35;1.35;;;;;;;;;;5003976;28;20400;-78
2022/10/24 13:36:16;;;;;;;2.33;1.30;;;;;;;;;;5025045;28;20038;-77
2022/10/24 13:39:03;;;;;;;1.92;1.13;;;;;;;;;;5001673;28;20028;-81
2022/10/24 13:41:56;;;;;;;6.95;1.23;;;;;;;;;;5013256;28;20052;-74
2022/10/24 13:44:43;;;;;;;4.70;1.55;;;;;;;;;;5001560;28;20551;-74
2022/10/24 13:47:33;;;;;;;2.70;1.25;;;;;;;;;;5031905;28;20492;-74
2022/10/24 13:50:45;;;;;;;3.78;0.98;;;;;;;;;;5012958;28;20353;-74
2022/10/24 13:53:33;;;;;;;5.57;1.40;;;;;;;;;;5015593;28;20028;-73
2022/10/24 13:56:18;;;;;;;3.03;1.30;;;;;;;;;;5014369;28;20471;-82
2022/10/24 13:59:06;;;;;;;3.22;1.20;;;;;;;;;;5000901;28;20025;-78
2022/10/24 14:01:51;;;;;;;12.43;2.55;;;;;;;;;;5011956;28;20104;-74
2022/10/24 14:04:38;;;;;;;2.53;1.20;;;;;;;;;;4999733;28;20029;-74
2022/10/24 14:07:28;;;;;;;3.33;1.10;;;;;;;;;;4998241;28;20595;-72
2022/10/24 14:10:15;;;;;;;5.43;1.75;;;;;;;;;;5014416;28;20438;-72
2022/10/24 14:13:01;;;;;;;4.93;1.40;;;;;;;;;;5012152;28;20169;-73
2022/10/24 14:15:55;;;;;;;12.57;1.80;;;;;;;;;;4997305;28;20036;-74
2022/10/24 14:18:41;;;;;;;2.95;1.40;;;;;;;;;;4998136;28;20463;-76
2022/10/24 14:21:26;;;;;;;3.58;1.42;;;;;;;;;;5000473;28;20029;-75
2022/10/24 14:24:15;;;;;;;3.10;1.45;;;;;;;;;;5001259;28;20372;-75
2022/10/24 14:27:00;;;;;;;;;;;;;;;;;;5014472;28;20033;-81
2022/10/24 14:29:50;;;;;;;3.53;1.33;;;;;;;;;;4999542;28;19921;-79
2022/10/24 14:32:36;;;;;;;5.28;1.17;;;;;;;;;;4999196;28;20676;-77
2022/10/24 14:35:21;;;;;;;4.28;1.30;;;;;;;;;;4999492;28;20033;-76
2022/10/24 14:38:06;;;;;;;3.83;1.55;;;;;;;;;;4998870;28;20469;-76
2022/10/24 14:40:52;;;;;;;2.33;1.30;;;;;;;;;;5000426;28;20062;-74
2022/10/24 14:43:41;;;;;;;3.45;1.23;;;;;;;;;;5001075;28;20132;-74
2022/10/24 14:46:30;;;;;;;10.27;1.73;;;;;;;;;;5015088;28;20041;-76
2022/10/24 14:49:18;;;;;;;3.35;1.40;;;;;;;;;;5000850;28;20036;-75
2022/10/24 14:52:16;;;;;;;4.88;1.50;;;;;;;;;;5000029;28;20244;-78
2022/10/24 14:55:03;;;;;;;4.80;1.52;;;;;;;;;;5025392;28;20058;-75
2022/10/24 14:57:50;;;;;;;8.85;2.17;;;;;;;;;;5014267;28;20026;-76
2022/10/24 15:00:36;;;;;;;5.40;1.35;;;;;;;;;;5015344;28;20049;-82
2022/10/24 15:03:26;;;;;;;3.45;1.38;;;;;;;;;;5012582;28;20060;-79
2022/10/24 15:06:18;;;;;;;3.67;1.63;;;;;;;;;;5004717;28;20079;-80
2022/10/24 15:09:09;;;;;;;18.92;2.45;;;;;;;;;;5001454;28;20561;-70
2022/10/24 15:11:59;;;;;;;5.07;1.52;;;;;;;;;;5012083;28;20045;-78
2022/10/24 15:14:47;;;;;;;;;;;;;;;;;;5000769;28;20476;-74
2022/10/24 15:17:33;;;;;;;4.97;1.85;;;;;;;;;;5013018;28;19966;-75
2022/10/24 15:20:22;;;;;;;3.42;1.48;;;;;;;;;;5015254;28;20021;-75
2022/10/24 15:23:19;;;;;;;2.88;1.23;;;;;;;;;;5001822;28;20029;-74
2022/10/24 15:26:15;;;;;;;3.08;1.38;;;;;;;;;;4999806;28;20492;-73
2022/10/24 15:29:00;;;;;;;4.63;1.67;;;;;;;;;;5012084;28;20025;-73
2022/10/24 15:31:47;;;;;;;7.97;1.65;;;;;;;;;;5012564;28;20047;-75
2022/10/24 15:34:33;;;;;;;10.45;2.35;;;;;;;;;;5015224;28;20041;-74
2022/10/24 15:37:19;;;;;;;5.75;1.50;;;;;;;;;;5000714;28;20033;-75
2022/10/24 15:40:18;;;;;;;6.40;1.40;;;;;;;;;;4997185;28;20620;-74
2022/10/24 15:43:04;;;;;;;5.60;1.55;;;;;;;;;;5014462;28;20044;-73
2022/10/24 15:45:50;;;;;;;7.28;1.83;;;;;;;;;;5015911;28;20030;-76
2022/10/24 15:48:36;;;;;;;4.47;1.73;;;;;;;;;;5008159;28;20084;-74
2022/10/24 15:51:22;;;;;;;4.88;1.73;;;;;;;;;;5014567;28;20025;-72
2022/10/24 15:54:12;;;;;;;7.00;1.73;;;;;;;;;;5004686;28;20021;-70
2022/10/24 15:56:57;;;;;;;10.20;2.17;;;;;;;;;;5005569;28;20480;-70
2022/10/24 15:59:42;;;;;;;9.32;2.10;;;;;;;;;;5011403;28;20100;-71
2022/10/24 16:02:28;;;;;;;3.22;2.08;;;;;;;;;;5010031;28;20748;-72
2022/10/24 16:05:23;;;;;;;6.30;1.38;;;;;;;;;;5008848;28;20033;-81
2022/10/24 16:08:13;;;;;;;9.52;1.63;;;;;;;;;;5000406;28;20025;-71
2022/10/24 16:10:58;;;;;;;7.15;1.90;;;;;;;;;;5013990;28;20502;-73
2022/10/24 16:13:44;;;;;;;5.10;1.48;;;;;;;;;;5013821;28;20041;-71
2022/10/24 16:16:29;;;;;;;7.60;1.70;;;;;;;;;;5014618;28;20048;-73
2022/10/24 16:19:14;;;;;;;4.63;1.83;;;;;;;;;;5009634;28;20100;-72
2022/10/24 16:22:00;;;;;;;6.82;1.45;;;;;;;;;;4990549;28;20451;-72
2022/10/24 16:24:45;;;;;;;7.28;2.15;;;;;;;;;;5018421;28;20088;-74
2022/10/24 16:27:30;;;;;;;7.95;1.70;;;;;;;;;;5012876;28;20029;-71
2022/10/24 16:30:17;;;;;;;7.95;1.75;;;;;;;;;;5014533;28;20033;-72
2022/10/24 16:33:03;;;;;;;6.13;1.85;;;;;;;;;;5013178;28;20487;-72
2022/10/24 16:35:48;;;;;;;5.22;1.88;;;;;;;;;;5000484;28;20060;-72
2022/10/24 16:38:34;;;;;;;10.52;3.05;;;;;;;;;;4995817;28;20046;-71
2022/10/24 16:41:20;;;;;;;13.07;2.97;;;;;;;;;;5014174;28;20563;-73
2022/10/24 16:44:06;;;;;;;5.18;2.50;;;;;;;;;;4993988;28;20052;-77
2022/10/24 16:46:52;;;;;;;7.47;1.92;;;;;;;;;;5013330;28;20465;-75